Time;durP1;ratioP1;P1;durP2;ratioP2;P2;SDS_P1;SDS_P2;PMS_P1;PMS_P2;Temp;Humidity;BMP_temperature;BMP_pressure;BME280_temperature;BME280_humidity;BME280_pressure;Samples;Min_cycle;Max_cycle;Signal;HPM_P1;HPM_P2
2023/09/12 00:00:06;;;;;;;5.40;2.40;;;;;;;28.22;48.58;99169.56;4992535;28;20085;-69
2023/09/12 00:02:31;;;;;;;6.35;2.50;;;;;;;28.22;48.97;99175.78;4992912;28;20080;-68
2023/09/12 00:04:57;;;;;;;4.28;2.63;;;;;;;28.22;48.72;99166.88;4996929;28;20026;-70
2023/09/12 00:07:22;;;;;;;4.65;2.20;;;;;;;28.21;48.70;99160.66;4992742;28;20027;-69
2023/09/12 00:09:47;;;;;;;5.55;2.63;;;;;;;28.22;48.79;99153.47;4992802;28;20080;-70
2023/09/12 00:12:14;;;;;;;5.22;2.50;;;;;;;28.19;49.02;99148.41;4992594;28;20029;-68
2023/09/12 00:14:40;;;;;;;3.83;2.45;;;;;;;28.19;49.09;99156.44;4992328;28;20034;-70
2023/09/12 00:17:05;;;;;;;4.93;2.50;;;;;;;28.19;49.09;99159.13;4992450;28;20026;-69
2023/09/12 00:19:30;;;;;;;4.68;2.22;;;;;;;28.21;49.21;99167.84;4992573;28;20037;-69
2023/09/12 00:21:56;;;;;;;3.83;2.13;;;;;;;28.20;49.35;99176.91;4992436;28;20029;-70
2023/09/12 00:24:21;;;;;;;4.40;2.50;;;;;;;28.18;49.51;99174.38;4992714;28;20069;-70
2023/09/12 00:26:46;;;;;;;4.80;2.40;;;;;;;28.18;49.54;99173.53;4992517;28;20406;-70
2023/09/12 00:29:12;;;;;;;5.65;2.60;;;;;;;28.18;49.48;99184.25;4992234;28;20041;-69
2023/09/12 00:31:38;;;;;;;4.63;2.50;;;;;;;28.18;49.52;99193.13;4992534;28;20489;-69
2023/09/12 00:34:03;;;;;;;4.25;2.25;;;;;;;28.17;49.31;99198.69;4992334;28;20019;-70
2023/09/12 00:36:28;;;;;;;4.95;2.50;;;;;;;28.16;49.48;99195.13;4992504;28;20033;-70
2023/09/12 00:38:54;;;;;;;4.20;2.60;;;;;;;28.15;49.65;99191.59;4992508;28;20026;-70
2023/09/12 00:41:19;;;;;;;6.38;2.65;;;;;;;28.15;49.44;99191.59;4992112;28;20418;-68
2023/09/12 00:43:45;;;;;;;4.82;2.38;;;;;;;28.13;49.50;99198.97;4992150;28;20057;-69
2023/09/12 00:46:10;;;;;;;4.18;2.10;;;;;;;28.15;49.16;99202.31;4992173;28;20046;-70
2023/09/12 00:48:38;;;;;;;5.28;2.17;;;;;;;28.14;49.71;99195.28;4992323;28;20033;-70
2023/09/12 00:51:04;;;;;;;3.80;2.08;;;;;;;28.15;49.81;99194.28;4992134;28;20026;-70
2023/09/12 00:53:30;;;;;;;5.65;2.50;;;;;;;28.14;49.75;99189.09;4992202;28;20028;-69
2023/09/12 00:55:58;;;;;;;4.18;2.22;;;;;;;28.13;49.29;99187.41;4992216;28;20035;-70
2023/09/12 00:58:25;;;;;;;5.30;2.15;;;;;;;28.14;49.55;99191.75;4991498;28;20105;-70
2023/09/12 01:00:50;;;;;;;6.00;2.60;;;;;;;28.13;49.81;99182.88;4991972;28;20030;-69
2023/09/12 01:03:16;;;;;;;3.85;2.15;;;;;;;28.13;49.76;99172.13;4992377;28;20038;-69
2023/09/12 01:05:43;;;;;;;6.22;2.33;;;;;;;28.12;49.70;99165.09;4999263;28;20030;-69
2023/09/12 01:08:08;;;;;;;5.75;2.33;;;;;;;28.11;49.68;99160.72;4995990;28;20026;-70
2023/09/12 01:10:34;;;;;;;4.00;2.22;;;;;;;28.11;49.82;99152.66;4996237;28;20402;-70
2023/09/12 01:12:59;;;;;;;5.53;2.22;;;;;;;28.12;49.96;99159.72;4995571;28;20062;-68
2023/09/12 01:15:25;;;;;;;3.92;2.17;;;;;;;28.11;49.97;99157.19;4995731;28;20026;-70
2023/09/12 01:17:50;;;;;;;4.25;2.42;;;;;;;28.11;49.99;99163.41;4996174;28;20383;-69
2023/09/12 01:20:23;;;;;;;4.28;2.20;;;;;;;28.11;49.91;99158.03;4995592;28;20450;-69
2023/09/12 01:23:07;;;;;;;5.45;2.10;;;;;;;28.10;49.70;99158.19;5011188;28;20045;-70
2023/09/12 01:25:38;;;;;;;5.25;2.25;;;;;;;28.09;50.11;99160.00;4995848;28;20030;-67
2023/09/12 01:28:07;;;;;;;5.75;2.55;;;;;;;28.09;50.08;99154.63;4995475;28;20073;-70
2023/09/12 01:30:34;;;;;;;3.85;2.22;;;;;;;28.09;50.12;99160.00;4995429;28;20033;-68
2023/09/12 01:33:00;;;;;;;4.25;2.20;;;;;;;28.08;49.70;99163.69;4995842;28;20034;-70
2023/09/12 01:35:26;;;;;;;5.45;2.00;;;;;;;28.07;49.88;99162.00;4995332;28;20034;-70
2023/09/12 01:37:51;;;;;;;4.55;2.50;;;;;;;28.08;49.96;99174.41;4995516;28;20049;-70
2023/09/12 01:40:17;;;;;;;5.55;2.30;;;;;;;28.07;50.04;99162.00;4995407;28;20023;-71
2023/09/12 01:42:46;;;;;;;4.60;2.38;;;;;;;28.06;50.12;99160.31;4995000;28;20030;-69
2023/09/12 01:45:16;;;;;;;5.63;2.40;;;;;;;28.07;49.82;99167.34;4995632;28;20129;-70
2023/09/12 01:47:42;;;;;;;5.10;2.28;;;;;;;28.07;49.90;99167.34;4995335;28;20023;-69
2023/09/12 01:50:09;;;;;;;4.10;2.20;;;;;;;28.07;49.97;99182.59;4995423;28;20026;-70
2023/09/12 01:52:36;;;;;;;4.25;2.30;;;;;;;28.05;50.13;99190.81;4995543;28;20010;-70
2023/09/12 01:55:02;;;;;;;6.70;2.22;;;;;;;28.06;50.13;99213.94;4994892;28;20018;-70
2023/09/12 01:57:28;;;;;;;5.43;2.53;;;;;;;28.06;50.36;99219.31;4995089;28;20433;-70
2023/09/12 01:59:53;;;;;;;6.15;2.20;;;;;;;28.07;50.44;99225.50;4995232;28;20061;-69
2023/09/12 02:02:18;;;;;;;6.07;2.35;;;;;;;28.04;50.38;99236.53;4994940;28;20458;-69
2023/09/12 02:05:04;;;;;;;6.07;2.72;;;;;;;28.05;50.40;99247.13;4999429;28;20476;-70
2023/09/12 02:07:33;;;;;;;3.57;1.97;;;;;;;28.04;50.15;99248.13;4994586;28;20451;-70
2023/09/12 02:10:00;;;;;;;3.63;2.38;;;;;;;28.05;49.99;99249.81;4994838;28;20037;-68
2023/09/12 02:12:25;;;;;;;4.57;2.28;;;;;;;28.06;49.72;99246.13;4995024;28;20022;-69
2023/09/12 02:14:51;;;;;;;3.25;1.88;;;;;;;28.07;50.01;99236.22;4989557;28;20029;-70
2023/09/12 02:17:16;;;;;;;3.67;2.13;;;;;;;28.05;49.65;99217.63;4994917;28;20029;-70
2023/09/12 02:19:41;;;;;;;5.95;2.38;;;;;;;28.04;50.21;99215.94;4994992;28;20475;-67
2023/09/12 02:22:07;;;;;;;3.75;1.90;;;;;;;28.04;49.90;99215.94;4994846;28;20027;-70
2023/09/12 02:24:35;;;;;;;4.95;2.45;;;;;;;28.04;49.79;99210.59;4994934;28;20415;-69
2023/09/12 02:27:00;;;;;;;4.45;2.40;;;;;;;28.03;50.11;99203.50;4994069;28;20042;-68
2023/09/12 02:29:25;;;;;;;4.82;2.25;;;;;;;28.04;49.75;99199.84;4994492;28;20088;-70
2023/09/12 02:31:51;;;;;;;4.60;2.63;;;;;;;28.01;49.91;99206.34;4994706;28;20030;-69
2023/09/12 02:34:16;;;;;;;3.88;1.98;;;;;;;28.03;49.84;99198.13;4987013;28;20072;-69
2023/09/12 02:36:42;;;;;;;5.38;2.28;;;;;;;28.03;49.88;99195.47;4994292;28;20022;-69
2023/09/12 02:39:07;;;;;;;4.10;2.22;;;;;;;28.03;49.72;99197.31;4994165;28;20032;-69
2023/09/12 02:41:32;;;;;;;5.25;2.47;;;;;;;28.01;49.79;99200.13;4993887;28;20109;-70
2023/09/12 02:43:58;;;;;;;3.70;2.17;;;;;;;28.02;49.79;99196.44;4994132;28;20064;-70
2023/09/12 02:46:24;;;;;;;5.80;2.90;;;;;;;28.01;49.68;99192.09;4994142;28;20045;-70
2023/09/12 02:48:49;;;;;;;5.25;2.70;;;;;;;28.02;50.03;99201.81;4994152;28;20022;-69
2023/09/12 02:51:15;;;;;;;5.07;2.90;;;;;;;28.01;49.80;99194.78;4994074;28;20089;-69
2023/09/12 02:53:40;;;;;;;5.57;2.47;;;;;;;28.03;49.81;99182.03;4994124;28;20386;-70
2023/09/12 02:56:05;;;;;;;4.78;2.60;;;;;;;28.03;49.73;99184.72;4993585;28;20117;-69
2023/09/12 02:58:31;;;;;;;5.82;2.50;;;;;;;28.04;49.44;99189.13;4994016;28;20049;-69
2023/09/12 03:00:56;;;;;;;4.35;2.65;;;;;;;28.02;49.70;99183.03;4993811;28;20041;-70
2023/09/12 03:03:22;;;;;;;5.20;2.63;;;;;;;28.02;49.62;99177.69;4993653;28;20146;-69
2023/09/12 03:05:47;;;;;;;4.88;2.80;;;;;;;28.02;49.85;99169.63;4998157;28;20512;-69
2023/09/12 03:08:12;;;;;;;4.43;2.80;;;;;;;28.01;49.70;99168.81;4993399;28;20030;-70
2023/09/12 03:10:38;;;;;;;5.00;3.28;;;;;;;28.02;49.93;99169.63;4992620;28;20105;-69
2023/09/12 03:13:03;;;;;;;4.70;2.60;;;;;;;28.01;50.03;99159.91;4993832;28;20033;-68
2023/09/12 03:15:29;;;;;;;5.20;2.83;;;;;;;28.00;49.71;99152.84;4993404;28;20470;-70
2023/09/12 03:17:54;;;;;;;5.63;2.97;;;;;;;27.99;49.56;99143.13;4986800;28;20026;-70
2023/09/12 03:20:19;;;;;;;5.50;2.75;;;;;;;27.99;49.79;99135.91;4990893;28;20023;-69
2023/09/12 03:22:45;;;;;;;5.10;2.80;;;;;;;27.99;50.07;99127.03;4993349;28;20026;-69
2023/09/12 03:25:11;;;;;;;5.05;2.92;;;;;;;27.99;49.83;99124.38;4993357;28;20018;-69
2023/09/12 03:27:36;;;;;;;4.60;2.67;;;;;;;27.99;49.96;99127.03;4992717;28;20033;-70
2023/09/12 03:30:03;;;;;;;5.60;3.13;;;;;;;27.99;50.01;99127.03;4993389;28;20034;-70
2023/09/12 03:32:29;;;;;;;6.90;3.00;;;;;;;27.97;49.75;99127.19;4993288;28;20049;-70
2023/09/12 03:34:54;;;;;;;6.05;2.85;;;;;;;27.98;50.17;99130.69;4992262;28;20046;-69
2023/09/12 03:37:19;;;;;;;6.80;2.80;;;;;;;27.96;50.16;99119.28;4992789;28;20042;-70
2023/09/12 03:39:45;;;;;;;5.60;2.70;;;;;;;27.96;49.82;99122.81;4993360;28;20033;-69
2023/09/12 03:42:10;;;;;;;5.18;2.70;;;;;;;27.96;50.14;99121.97;4993169;28;20647;-68
2023/09/12 03:44:35;;;;;;;6.55;2.80;;;;;;;27.94;50.44;99122.09;4993345;28;20026;-70
2023/09/12 03:47:01;;;;;;;5.60;3.08;;;;;;;27.95;50.28;99133.69;4993293;28;20026;-70
2023/09/12 03:49:28;;;;;;;6.20;3.28;;;;;;;27.95;50.65;99125.63;4992916;28;20057;-70
2023/09/12 03:51:53;;;;;;;5.03;3.13;;;;;;;27.93;50.55;99122.28;4992511;28;20081;-71
2023/09/12 03:54:19;;;;;;;6.32;3.25;;;;;;;27.92;50.35;99125.91;4993001;28;20038;-71
2023/09/12 03:56:44;;;;;;;5.22;3.33;;;;;;;27.93;50.88;99127.63;4992924;28;20026;-70
2023/09/12 03:59:09;;;;;;;5.15;2.90;;;;;;;27.92;50.76;99118.72;4992784;28;20032;-70
2023/09/12 04:01:35;;;;;;;6.22;2.90;;;;;;;27.93;50.72;99122.28;4992658;28;20179;-71
2023/09/12 04:04:00;;;;;;;6.13;3.30;;;;;;;27.92;50.54;99121.41;4992899;28;20022;-71
2023/09/12 04:06:26;;;;;;;6.60;3.45;;;;;;;27.91;51.13;99119.72;4998436;28;20109;-68
2023/09/12 04:08:51;;;;;;;5.60;3.38;;;;;;;27.89;50.84;99119.00;4992734;28;20032;-70
2023/09/12 04:11:16;;;;;;;6.55;3.50;;;;;;;27.89;51.03;99119.00;4992802;28;20029;-70
2023/09/12 04:13:42;;;;;;;6.22;3.33;;;;;;;27.90;51.03;99125.22;4992575;28;20023;-69
2023/09/12 04:16:07;;;;;;;5.18;3.33;;;;;;;27.88;50.88;99128.91;5007365;28;20472;-71
2023/09/12 04:18:33;;;;;;;5.95;3.08;;;;;;;27.86;51.21;99132.72;4992887;28;20037;-69
2023/09/12 04:20:58;;;;;;;6.60;3.20;;;;;;;27.86;50.87;99133.59;4992282;28;20014;-70
2023/09/12 04:23:26;;;;;;;5.65;3.50;;;;;;;27.86;51.28;99144.31;4992741;28;20494;-70
2023/09/12 04:25:52;;;;;;;5.82;3.25;;;;;;;27.84;51.45;99146.28;4977731;28;20625;-71
2023/09/12 04:28:17;;;;;;;5.88;3.38;;;;;;;27.85;51.13;99142.59;4988348;28;20105;-70
2023/09/12 04:30:43;;;;;;;6.20;3.13;;;;;;;27.84;51.63;99138.22;4992048;28;20022;-68
2023/09/12 04:33:08;;;;;;;5.97;3.30;;;;;;;27.83;51.46;99144.59;4974910;28;20023;-70
2023/09/12 04:35:34;;;;;;;5.75;3.30;;;;;;;27.83;51.55;99147.28;4988760;28;20023;-69
2023/09/12 04:38:00;;;;;;;5.47;2.88;;;;;;;27.83;51.41;99158.00;4989512;28;20097;-71
2023/09/12 04:40:25;;;;;;;5.47;3.30;;;;;;;27.82;51.31;99153.63;4984998;28;20027;-69
2023/09/12 04:42:50;;;;;;;5.55;3.67;;;;;;;27.83;51.27;99166.03;4988183;28;20019;-71
2023/09/12 04:45:16;;;;;;;6.28;3.53;;;;;;;27.81;51.33;99157.31;4992002;28;20599;-69
2023/09/12 04:47:41;;;;;;;5.13;3.40;;;;;;;27.81;51.38;99162.66;4992275;28;20034;-70
2023/09/12 04:50:07;;;;;;;5.97;3.42;;;;;;;27.81;51.08;99160.00;4990558;28;20398;-71
2023/09/12 04:52:32;;;;;;;5.78;3.10;;;;;;;27.82;51.07;99167.03;4988622;28;20105;-69
2023/09/12 04:54:58;;;;;;;6.70;3.50;;;;;;;27.81;51.37;99160.00;4978240;28;20094;-69
2023/09/12 04:57:23;;;;;;;5.88;3.70;;;;;;;27.81;51.27;99173.38;4984239;28;20394;-68
2023/09/12 04:59:49;;;;;;;6.32;3.33;;;;;;;27.81;51.21;99178.75;4982634;28;20022;-70
2023/09/12 05:02:15;;;;;;;6.82;2.95;;;;;;;27.83;50.37;99182.13;4991501;28;20050;-68
2023/09/12 05:04:40;;;;;;;4.65;3.10;;;;;;;27.82;50.16;99183.13;4985533;28;20064;-65
2023/09/12 05:07:06;;;;;;;5.00;3.05;;;;;;;27.83;50.11;99175.91;4981291;28;20113;-65
2023/09/12 05:09:31;;;;;;;5.57;3.20;;;;;;;27.84;50.28;99173.09;4988972;28;20406;-64
2023/09/12 05:11:57;;;;;;;5.25;3.20;;;;;;;27.82;50.09;99175.06;4991755;28;20023;-65
2023/09/12 05:14:22;;;;;;;5.82;3.08;;;;;;;27.83;50.19;99182.13;4991662;28;20022;-65
2023/09/12 05:16:47;;;;;;;6.53;3.10;;;;;;;27.80;50.54;99179.72;4991560;28;20034;-64
2023/09/12 05:19:13;;;;;;;4.85;2.88;;;;;;;27.83;50.52;99178.59;4982614;28;20019;-65
2023/09/12 05:21:38;;;;;;;6.47;3.28;;;;;;;27.83;50.33;99182.13;5006967;28;20030;-65
2023/09/12 05:24:04;;;;;;;7.47;3.33;;;;;;;27.83;50.49;99170.53;5006443;28;20027;-65
2023/09/12 05:26:29;;;;;;;7.85;3.25;;;;;;;27.83;50.52;99170.53;4991648;28;20073;-66
2023/09/12 05:28:55;;;;;;;5.75;3.13;;;;;;;27.81;50.70;99168.03;4987451;28;20028;-65
2023/09/12 05:31:20;;;;;;;9.27;3.92;;;;;;;27.84;50.80;99178.44;4987204;28;20030;-64
2023/09/12 05:33:46;;;;;;;9.82;4.10;;;;;;;27.83;50.97;99182.13;4988229;28;20015;-65
2023/09/12 05:36:11;;;;;;;11.52;4.10;;;;;;;27.83;51.42;99176.75;4991080;28;20022;-65
2023/09/12 05:38:36;;;;;;;10.68;4.07;;;;;;;27.84;51.51;99173.09;4985242;28;20027;-65
2023/09/12 05:41:02;;;;;;;9.32;3.50;;;;;;;27.85;51.44;99173.94;4989254;28;20022;-65
2023/09/12 05:43:27;;;;;;;10.65;4.20;;;;;;;27.83;51.39;99176.75;4991626;28;20072;-65
2023/09/12 05:45:53;;;;;;;7.80;3.78;;;;;;;27.85;51.52;99185.50;4982040;28;20034;-66
2023/09/12 05:48:18;;;;;;;9.10;3.58;;;;;;;27.85;51.56;99184.66;4978480;28;20615;-65
2023/09/12 05:50:44;;;;;;;8.77;3.80;;;;;;;27.85;51.35;99185.50;4992278;28;20031;-65
2023/09/12 05:53:09;;;;;;;7.25;3.28;;;;;;;27.83;51.19;99192.00;4993545;28;20026;-64
2023/09/12 05:55:35;;;;;;;6.68;3.35;;;;;;;27.86;51.35;99197.94;4994456;28;20464;-65
2023/09/12 05:58:00;;;;;;;6.38;3.30;;;;;;;27.84;51.69;99202.56;4995088;28;20025;-66
2023/09/12 06:00:26;;;;;;;7.72;3.72;;;;;;;27.84;51.29;99210.63;4995203;28;20029;-64
2023/09/12 06:02:51;;;;;;;6.72;3.70;;;;;;;27.84;50.97;99204.44;4994037;28;20049;-65
2023/09/12 06:05:16;;;;;;;10.52;3.95;;;;;;;27.84;51.34;99193.72;4995372;28;20059;-65
2023/09/12 06:07:42;;;;;;;7.82;3.35;;;;;;;27.83;51.19;99195.53;4993134;28;20022;-65
2023/09/12 06:10:09;;;;;;;7.03;3.78;;;;;;;27.85;50.71;99196.22;4994679;28;20050;-65
2023/09/12 06:12:36;;;;;;;8.25;3.63;;;;;;;27.84;50.81;99194.53;4994849;28;20030;-64
2023/09/12 06:15:04;;;;;;;7.90;3.50;;;;;;;27.83;50.75;99192.84;4994832;28;20109;-65
2023/09/12 06:17:29;;;;;;;6.25;3.67;;;;;;;27.82;50.78;99190.31;4994500;28;20026;-64
2023/09/12 06:19:55;;;;;;;6.50;3.53;;;;;;;27.81;50.78;99189.47;4994841;28;20036;-65
2023/09/12 06:22:22;;;;;;;7.88;3.67;;;;;;;27.82;50.75;99175.06;4994497;28;20026;-65
2023/09/12 06:24:48;;;;;;;6.90;3.50;;;;;;;27.83;50.94;99190.16;4994203;28;20065;-65
2023/09/12 06:27:18;;;;;;;4.97;3.70;;;;;;;27.83;50.58;99192.00;4994850;28;20018;-65
2023/09/12 06:29:44;;;;;;;6.35;3.10;;;;;;;27.82;50.70;99193.84;4994968;28;20037;-65
2023/09/12 06:32:09;;;;;;;7.28;3.75;;;;;;;27.83;50.64;99186.63;4994157;28;20026;-65
2023/09/12 06:34:35;;;;;;;6.45;3.72;;;;;;;27.83;50.28;99184.81;4994639;28;20088;-65
2023/09/12 06:37:00;;;;;;;6.43;3.80;;;;;;;27.82;50.08;99196.53;4993860;28;20026;-65
2023/09/12 06:39:25;;;;;;;5.45;3.38;;;;;;;27.81;50.09;99202.88;4993459;28;20037;-65
2023/09/12 06:41:51;;;;;;;6.05;3.58;;;;;;;27.81;50.65;99205.56;4993055;28;20398;-65
2023/09/12 06:44:16;;;;;;;5.32;3.20;;;;;;;27.82;50.02;99217.13;4994350;28;20033;-65
2023/09/12 06:46:42;;;;;;;7.05;3.58;;;;;;;27.81;50.12;99227.00;4992704;28;20031;-65
2023/09/12 06:49:07;;;;;;;6.28;3.47;;;;;;;27.81;50.20;99227.00;4994129;28;20029;-65
2023/09/12 06:51:32;;;;;;;5.25;3.22;;;;;;;27.80;50.37;99225.28;4994197;28;20037;-66
2023/09/12 06:53:58;;;;;;;6.72;3.60;;;;;;;27.79;50.50;99223.59;4994205;28;20030;-65
2023/09/12 06:56:23;;;;;;;6.20;3.20;;;;;;;27.81;50.24;99227.00;4994157;28;20068;-65
2023/09/12 06:58:48;;;;;;;5.38;3.40;;;;;;;27.78;50.48;99221.91;4993888;28;20474;-65
2023/09/12 07:01:14;;;;;;;6.28;3.42;;;;;;;27.80;50.31;99224.47;4992693;28;20050;-65
2023/09/12 07:03:39;;;;;;;7.60;3.72;;;;;;;27.77;50.37;99220.22;4993690;28;20054;-65
2023/09/12 07:06:05;;;;;;;5.68;3.17;;;;;;;27.78;50.61;99216.56;5004993;28;20062;-65
2023/09/12 07:08:31;;;;;;;6.22;3.00;;;;;;;27.77;50.51;99205.97;4992758;28;20026;-64
2023/09/12 07:10:57;;;;;;;5.50;3.40;;;;;;;27.77;50.13;99209.50;4992689;28;20041;-65
2023/09/12 07:13:23;;;;;;;6.25;3.13;;;;;;;27.77;50.02;99212.19;4993366;28;20022;-65
2023/09/12 07:15:50;;;;;;;6.00;3.40;;;;;;;27.78;49.89;99232.66;4993012;28;20061;-65
2023/09/12 07:18:15;;;;;;;5.85;3.38;;;;;;;27.77;50.37;99230.97;4993476;28;20026;-65
2023/09/12 07:20:41;;;;;;;7.38;3.53;;;;;;;27.76;50.37;99233.78;4993513;28;20510;-65
2023/09/12 07:23:07;;;;;;;5.40;3.10;;;;;;;27.78;50.30;99238.00;4993860;28;20126;-64
2023/09/12 07:25:38;;;;;;;5.68;3.22;;;;;;;27.78;49.74;99246.03;4993420;28;20069;-65
2023/09/12 07:28:04;;;;;;;5.95;3.22;;;;;;;27.75;50.34;99249.03;4993411;28;20410;-64
2023/09/12 07:30:30;;;;;;;7.28;3.47;;;;;;;27.76;50.01;99256.06;4991471;28;20030;-64
2023/09/12 07:32:55;;;;;;;4.53;2.88;;;;;;;27.78;49.77;99255.94;4993227;28;20096;-64
2023/09/12 07:35:23;;;;;;;6.15;3.05;;;;;;;27.78;50.05;99261.31;4992868;28;20026;-65
2023/09/12 07:37:49;;;;;;;5.93;2.90;;;;;;;27.76;50.12;99256.06;4993412;28;20545;-65
2023/09/12 07:40:14;;;;;;;4.82;3.08;;;;;;;27.78;50.07;99262.13;4993294;28;20030;-64
2023/09/12 07:42:40;;;;;;;4.72;2.97;;;;;;;27.77;50.32;99262.25;4992848;28;20026;-65
2023/09/12 07:45:06;;;;;;;5.13;3.70;;;;;;;27.76;50.00;99272.16;4992931;28;20030;-64
2023/09/12 07:47:32;;;;;;;5.38;3.05;;;;;;;27.77;49.90;99273.84;4992822;28;20066;-65
2023/09/12 07:50:00;;;;;;;4.72;3.10;;;;;;;27.75;49.90;99265.13;4993381;28;20034;-65
2023/09/12 07:52:25;;;;;;;4.95;2.88;;;;;;;27.76;49.88;99277.53;4993148;28;20030;-65
2023/09/12 07:54:53;;;;;;;5.15;3.33;;;;;;;27.77;49.80;99278.34;4993277;28;20052;-65
2023/09/12 07:57:18;;;;;;;5.97;3.28;;;;;;;27.75;50.34;99291.91;4992806;28;20030;-65
2023/09/12 07:59:44;;;;;;;5.30;3.20;;;;;;;27.76;50.17;99296.28;4992749;28;20014;-65
2023/09/12 08:02:12;;;;;;;5.32;3.20;;;;;;;27.76;50.00;99307.00;4992723;28;20510;-65
2023/09/12 08:04:38;;;;;;;4.32;2.95;;;;;;;27.76;50.05;99315.06;4994053;28;20034;-65
2023/09/12 08:07:03;;;;;;;4.78;3.15;;;;;;;27.75;49.88;99324.09;4992863;28;20110;-65
2023/09/12 08:09:50;;;;;;;5.15;3.63;;;;;;;27.75;50.07;99326.78;4992686;28;20041;-65
2023/09/12 08:12:16;;;;;;;5.05;3.17;;;;;;;27.75;50.12;99324.09;4986829;28;20023;-65
2023/09/12 08:14:41;;;;;;;6.18;3.15;;;;;;;27.75;49.82;99326.78;4992228;28;20033;-64
2023/09/12 08:17:07;;;;;;;5.70;3.35;;;;;;;27.75;50.22;99324.09;4992580;28;20030;-65
2023/09/12 08:19:32;;;;;;;5.75;3.30;;;;;;;27.76;49.52;99320.41;4992402;28;20109;-65
2023/09/12 08:21:58;;;;;;;4.50;2.97;;;;;;;27.74;49.80;99319.69;4992781;28;20387;-65
2023/09/12 08:24:23;;;;;;;4.43;2.95;;;;;;;27.74;49.98;99322.38;4992464;28;20120;-64
2023/09/12 08:26:49;;;;;;;6.90;3.05;;;;;;;27.73;49.78;99328.72;4992458;28;20034;-66
2023/09/12 08:29:15;;;;;;;5.65;3.25;;;;;;;27.74;49.66;99333.09;4992003;28;20549;-65
2023/09/12 08:31:40;;;;;;;5.63;3.60;;;;;;;27.74;50.02;99338.44;4992423;28;20109;-65
2023/09/12 08:34:05;;;;;;;4.70;3.28;;;;;;;27.73;50.13;99342.13;4992487;28;20030;-65
2023/09/12 08:36:31;;;;;;;5.05;3.33;;;;;;;27.72;50.20;99337.75;4992225;28;20497;-65
2023/09/12 08:38:56;;;;;;;6.03;3.45;;;;;;;27.74;49.98;99333.09;4992653;28;20037;-65
2023/09/12 08:41:21;;;;;;;4.63;3.25;;;;;;;27.73;50.14;99331.41;4990909;28;20049;-65
2023/09/12 08:43:48;;;;;;;5.30;3.42;;;;;;;27.73;50.34;99331.41;4992159;28;20390;-65
2023/09/12 08:46:16;;;;;;;6.85;3.50;;;;;;;27.75;50.21;99340.16;4991823;28;20018;-65
2023/09/12 08:48:42;;;;;;;5.53;3.28;;;;;;;27.73;50.13;99336.75;4992366;28;20026;-65
2023/09/12 08:51:09;;;;;;;5.50;3.28;;;;;;;27.75;49.71;99340.16;4992046;28;20101;-65
2023/09/12 08:53:35;;;;;;;6.45;3.75;;;;;;;27.73;49.80;99337.63;4992130;28;20395;-65
2023/09/12 08:56:03;;;;;;;6.38;3.47;;;;;;;27.73;49.77;99337.63;4992259;28;20034;-64
2023/09/12 08:58:31;;;;;;;4.90;3.40;;;;;;;27.74;49.75;99343.81;4991760;28;20526;-65
2023/09/12 09:00:57;;;;;;;5.13;3.30;;;;;;;27.74;49.84;99339.31;4992094;28;20078;-66
2023/09/12 09:03:24;;;;;;;6.50;3.70;;;;;;;27.74;49.92;99349.19;4990469;28;20451;-65
2023/09/12 09:05:51;;;;;;;4.82;3.53;;;;;;;27.74;49.85;99349.19;4999796;28;20455;-65
2023/09/12 09:08:18;;;;;;;5.03;3.30;;;;;;;27.74;49.95;99349.19;4991945;28;20033;-65
2023/09/12 09:10:57;;;;;;;6.15;3.83;;;;;;;27.73;50.14;99352.84;4991420;28;20080;-65
2023/09/12 09:13:23;;;;;;;4.93;3.40;;;;;;;27.73;49.70;99345.66;4990775;28;20031;-65
2023/09/12 09:15:49;;;;;;;5.53;3.72;;;;;;;27.74;50.00;99346.50;4991348;28;20034;-65
2023/09/12 09:18:14;;;;;;;6.07;3.95;;;;;;;27.72;49.48;99346.66;4991776;28;20041;-65
2023/09/12 09:20:40;;;;;;;4.88;3.58;;;;;;;27.72;49.75;99345.81;4991767;28;20029;-64
2023/09/12 09:23:11;;;;;;;5.55;3.22;;;;;;;27.73;49.78;99348.34;4992213;28;20022;-65
2023/09/12 09:25:40;;;;;;;6.10;3.78;;;;;;;27.71;49.90;99349.47;4994117;28;20045;-65
2023/09/12 09:28:19;;;;;;;5.45;3.70;;;;;;;27.72;49.66;99356.53;4995826;28;20450;-65
2023/09/12 09:30:47;;;;;;;6.70;3.92;;;;;;;27.72;49.79;99353.84;4995700;28;20102;-65
2023/09/12 09:33:13;;;;;;;5.47;3.75;;;;;;;27.72;49.44;99348.47;4995822;28;20121;-64
2023/09/12 09:35:42;;;;;;;6.28;3.72;;;;;;;27.73;49.54;99347.50;4995141;28;20465;-65
2023/09/12 09:38:08;;;;;;;6.00;3.63;;;;;;;27.72;49.43;99345.81;4995634;28;20053;-65
2023/09/12 09:40:35;;;;;;;5.32;3.50;;;;;;;27.74;49.32;99346.50;4995114;28;20433;-64
2023/09/12 09:43:02;;;;;;;6.13;3.83;;;;;;;27.73;49.80;99347.50;4995588;28;20508;-64
2023/09/12 09:45:34;;;;;;;6.20;3.60;;;;;;;27.73;49.48;99342.13;4995343;28;20027;-66
2023/09/12 09:48:08;;;;;;;5.05;3.40;;;;;;;27.74;49.65;99343.81;4982432;28;20026;-65
2023/09/12 09:50:37;;;;;;;4.53;3.33;;;;;;;27.74;49.65;99344.69;4994390;28;20031;-64
2023/09/12 09:53:05;;;;;;;5.57;3.70;;;;;;;27.73;49.53;99339.44;4995422;28;20093;-66
2023/09/12 09:55:32;;;;;;;6.43;3.58;;;;;;;27.72;49.49;99345.81;4994898;28;20031;-65
2023/09/12 09:57:57;;;;;;;5.78;3.38;;;;;;;27.72;49.73;99340.44;4995332;28;20022;-65
2023/09/12 10:00:23;;;;;;;6.18;3.65;;;;;;;27.73;49.76;99342.13;4995213;28;20117;-65
2023/09/12 10:02:51;;;;;;;6.30;3.55;;;;;;;27.72;49.41;99340.44;4994972;28;20059;-65
2023/09/12 10:05:17;;;;;;;4.90;3.20;;;;;;;27.73;49.48;99342.13;4995391;28;20019;-64
2023/09/12 10:07:48;;;;;;;6.05;3.80;;;;;;;27.73;49.68;99342.13;4995064;28;20023;-65
2023/09/12 10:10:14;;;;;;;6.00;4.00;;;;;;;27.72;49.27;99349.34;4994568;28;20015;-66
2023/09/12 10:12:49;;;;;;;5.32;3.75;;;;;;;27.73;49.66;99352.84;4993461;28;20022;-65
2023/09/12 10:15:17;;;;;;;6.22;3.92;;;;;;;27.72;49.52;99356.53;4995183;28;20027;-65
2023/09/12 10:17:46;;;;;;;4.88;3.42;;;;;;;27.71;49.48;99362.88;4994655;28;20052;-65
2023/09/12 10:20:19;;;;;;;5.78;3.85;;;;;;;27.71;49.44;99370.91;4994759;28;20471;-65
2023/09/12 10:23:11;;;;;;;5.45;3.58;;;;;;;27.71;49.40;99370.91;4995000;28;20061;-65
2023/09/12 10:25:37;;;;;;;4.53;3.42;;;;;;;27.70;49.66;99369.22;4994204;28;20054;-64
2023/09/12 10:28:05;;;;;;;5.25;3.58;;;;;;;27.69;49.79;99373.72;4994752;28;20105;-65
2023/09/12 10:30:31;;;;;;;6.25;4.18;;;;;;;27.70;49.90;99369.22;4992861;28;20491;-65
2023/09/12 10:32:57;;;;;;;5.03;3.30;;;;;;;27.70;49.67;99366.56;4994262;28;20033;-65
2023/09/12 10:35:22;;;;;;;5.78;4.13;;;;;;;27.70;50.20;99370.06;4994156;28;20136;-64
2023/09/12 10:37:49;;;;;;;6.75;3.92;;;;;;;27.69;49.76;99368.38;4993985;28;20562;-65
2023/09/12 10:40:16;;;;;;;4.80;3.47;;;;;;;27.69;49.55;99368.38;4994242;28;20034;-65
2023/09/12 10:42:42;;;;;;;6.10;3.83;;;;;;;27.69;49.67;99372.91;4994301;28;20116;-64
2023/09/12 10:45:09;;;;;;;5.82;3.80;;;;;;;27.68;49.46;99374.72;4994584;28;20541;-65
2023/09/12 10:47:36;;;;;;;5.72;3.88;;;;;;;27.70;49.60;99375.41;4994041;28;20491;-65
2023/09/12 10:50:02;;;;;;;5.82;3.70;;;;;;;27.69;49.62;99378.25;4994561;28;20065;-65
2023/09/12 10:52:28;;;;;;;5.55;3.83;;;;;;;27.70;49.35;99382.63;4994055;28;20026;-65
2023/09/12 10:54:54;;;;;;;6.93;3.78;;;;;;;27.69;49.53;99375.59;4994338;28;20368;-65
2023/09/12 10:57:20;;;;;;;6.30;4.05;;;;;;;27.69;49.45;99372.91;4993841;28;20038;-65
2023/09/12 11:00:04;;;;;;;5.78;4.03;;;;;;;27.69;49.80;99362.19;4994204;28;20019;-65
2023/09/12 11:02:34;;;;;;;5.63;3.63;;;;;;;27.70;49.46;99367.38;4993717;28;20050;-65
2023/09/12 11:05:03;;;;;;;4.97;3.50;;;;;;;27.68;49.27;99371.19;4994822;28;20031;-65
2023/09/12 11:07:37;;;;;;;5.45;3.90;;;;;;;27.69;49.45;99372.91;4993832;28;20033;-65
2023/09/12 11:10:15;;;;;;;5.43;3.58;;;;;;;27.68;49.76;99373.88;4980585;28;20022;-65
2023/09/12 11:12:42;;;;;;;4.88;3.53;;;;;;;27.67;49.75;99374.84;4993860;28;20027;-65
2023/09/12 11:15:10;;;;;;;6.15;3.90;;;;;;;27.65;49.84;99371.47;4993784;28;20022;-65
2023/09/12 11:17:42;;;;;;;5.00;3.83;;;;;;;27.64;49.42;99375.16;4993648;28;20101;-64
2023/09/12 11:20:12;;;;;;;5.40;3.30;;;;;;;27.63;49.47;99370.75;4992428;28;20113;-65
2023/09/12 11:22:45;;;;;;;7.72;3.85;;;;;;;27.64;49.58;99369.78;4993409;28;20034;-65
2023/09/12 11:25:28;;;;;;;5.97;3.88;;;;;;;27.65;49.76;99376.84;4993572;28;20106;-65
2023/09/12 11:27:53;;;;;;;6.32;3.80;;;;;;;27.64;49.82;99380.50;4993560;28;20034;-65
2023/09/12 11:30:20;;;;;;;5.43;3.72;;;;;;;27.63;49.59;99374.28;4992201;28;20034;-65